Time;durP1;ratioP1;P1;durP2;ratioP2;P2;SDS_P1;SDS_P2;PMS_P1;PMS_P2;Temp;Humidity;BMP_temperature;BMP_pressure;BME280_temperature;BME280_humidity;BME280_pressure;Samples;Min_cycle;Max_cycle;Signal;HPM_P1;HPM_P2
2022/08/22 00:00:19;;;;;;;9.95;4.00;;;;;;;25.25;26.00;100024.53;5056136;28;20047;-66
2022/08/22 00:03:16;;;;;;;9.95;4.22;;;;;;;25.20;25.87;100025.22;5072678;28;20151;-66
2022/08/22 00:05:50;;;;;;;7.90;4.15;;;;;;;25.32;25.78;100012.44;5072676;28;20437;-66
2022/08/22 00:08:29;;;;;;;11.25;4.30;;;;;;;25.21;26.24;100024.19;5072622;28;20040;-66
2022/08/22 00:11:11;;;;;;;14.02;4.65;;;;;;;25.23;26.39;100030.22;5073008;28;20036;-66
2022/08/22 00:14:16;;;;;;;7.22;4.35;;;;;;;25.24;26.17;100031.84;5072577;28;20051;-67
2022/08/22 00:16:54;;;;;;;10.10;5.00;;;;;;;25.11;26.41;100028.59;5071808;28;20044;-66
2022/08/22 00:19:46;;;;;;;12.15;5.05;;;;;;;24.94;26.25;100025.81;5070349;28;20082;-66
2022/08/22 00:22:24;;;;;;;12.93;5.47;;;;;;;25.21;26.27;100031.50;5073458;28;20098;-66
2022/08/22 00:24:53;;;;;;;11.30;5.05;;;;;;;24.91;26.87;100033.63;5072232;28;20048;-66
2022/08/22 00:27:35;;;;;;;16.83;6.07;;;;;;;25.04;26.70;100023.31;5072172;28;20094;-66
2022/08/22 00:30:14;;;;;;;13.95;6.03;;;;;;;24.86;26.36;100035.16;5072221;28;20063;-66
2022/08/22 00:33:04;;;;;;;14.30;6.70;;;;;;;25.04;26.43;100034.16;5072030;28;20063;-66
2022/08/22 00:35:37;;;;;;;12.77;6.97;;;;;;;24.97;26.54;100011.72;5072035;28;20107;-66
2022/08/22 00:38:12;;;;;;;10.82;6.65;;;;;;;25.07;26.62;100033.69;5073193;28;20075;-67
2022/08/22 00:40:56;;;;;;;13.82;6.97;;;;;;;25.11;26.31;100029.41;5072982;28;20060;-67
2022/08/22 00:43:39;;;;;;;18.52;8.40;;;;;;;25.11;26.38;100034.84;5071626;28;20079;-66
2022/08/22 00:46:19;;;;;;;18.88;7.78;;;;;;;25.02;26.83;100038.22;5073054;28;20040;-66
2022/08/22 00:48:48;;;;;;;23.20;9.20;;;;;;;24.81;26.84;100037.81;5073355;28;20170;-66
2022/08/22 00:51:49;;;;;;;18.20;9.05;;;;;;;25.04;26.55;100041.50;5073084;28;20752;-66
2022/08/22 00:55:00;;;;;;;22.58;9.82;;;;;;;25.11;26.93;100058.50;5053229;28;20079;-65
2022/08/22 00:57:50;;;;;;;19.52;9.73;;;;;;;25.13;26.80;100065.34;5070591;28;20044;-66
2022/08/22 01:00:30;;;;;;;20.27;9.75;;;;;;;25.14;26.79;100075.13;5069258;28;20060;-66
2022/08/22 01:03:21;;;;;;;19.25;9.85;;;;;;;25.16;27.60;100070.28;5052803;28;20045;-65
2022/08/22 01:06:11;;;;;;;21.88;9.43;;;;;;;24.88;27.68;100055.84;5070719;28;20045;-66
2022/08/22 01:08:55;;;;;;;24.30;9.35;;;;;;;24.76;28.84;100081.16;5069964;28;20332;-66
2022/08/22 01:11:54;;;;;;;21.83;10.25;;;;;;;24.72;29.17;100077.25;5071676;28;20585;-66
2022/08/22 01:14:41;;;;;;;22.90;9.38;;;;;;;24.57;29.92;100070.66;5071429;28;20056;-66
2022/08/22 01:17:18;;;;;;;15.98;9.40;;;;;;;24.55;29.76;100068.16;5072545;28;20048;-66
2022/08/22 01:20:10;;;;;;;21.23;9.38;;;;;;;24.41;30.54;100060.50;5071460;28;20044;-66
2022/08/22 01:23:01;;;;;;;17.95;9.63;;;;;;;24.42;30.52;100057.53;5071657;28;20051;-66
2022/08/22 01:26:04;;;;;;;22.33;8.93;;;;;;;24.34;30.16;100048.94;5073111;28;20052;-65
2022/08/22 01:29:09;;;;;;;18.98;9.85;;;;;;;24.37;30.79;100043.03;5073004;28;20083;-67
2022/08/22 01:31:44;;;;;;;17.65;8.27;;;;;;;24.32;30.50;100041.03;5072841;28;20047;-67
2022/08/22 01:34:37;;;;;;;14.82;8.23;;;;;;;24.32;30.50;100060.03;5072871;28;20062;-66
2022/08/22 01:37:42;;;;;;;19.40;9.05;;;;;;;24.26;30.83;100058.25;5072357;28;20047;-67
2022/08/22 01:40:20;;;;;;;16.10;8.07;;;;;;;24.03;31.01;100054.72;5070751;28;20044;-66
2022/08/22 01:43:11;;;;;;;15.88;7.85;;;;;;;24.12;30.71;100042.44;5070962;28;20040;-66
2022/08/22 01:46:08;;;;;;;21.17;9.07;;;;;;;24.34;31.29;100036.16;5070890;28;20044;-66
2022/08/22 01:48:43;;;;;;;18.80;9.13;;;;;;;24.23;31.35;100034.28;5071143;28;20041;-66
2022/08/22 01:51:30;;;;;;;15.65;8.68;;;;;;;24.25;30.87;100036.75;5070719;28;20059;-65
2022/08/22 01:54:11;;;;;;;21.80;9.45;;;;;;;24.01;31.39;100026.97;5070294;28;20040;-66
2022/08/22 01:56:43;;;;;;;19.17;10.10;;;;;;;24.19;31.43;100030.41;5070620;28;20050;-66
2022/08/22 01:59:25;;;;;;;20.92;10.52;;;;;;;24.20;31.19;100042.09;5070522;28;20052;-66
2022/08/22 02:02:00;;;;;;;24.38;11.50;;;;;;;24.04;31.83;100029.22;5070502;28;20131;-67
2022/08/22 02:04:35;;;;;;;31.00;12.70;;;;;;;23.99;31.47;100038.06;5070088;28;20074;-67
2022/08/22 02:07:12;;;;;;;32.88;13.38;;;;;;;24.36;31.32;100033.22;5071524;28;20514;-67
2022/08/22 02:10:15;;;;;;;36.90;14.27;;;;;;;24.30;30.98;100021.44;5071525;28;20052;-66
2022/08/22 02:12:50;;;;;;;33.03;15.23;;;;;;;24.05;31.82;100023.56;5071128;28;20093;-66
2022/08/22 02:15:37;;;;;;;47.08;16.67;;;;;;;24.39;31.17;100033.56;5070208;28;20045;-66
2022/08/22 02:18:07;;;;;;;44.78;20.50;;;;;;;24.30;31.44;100032.28;5071458;28;20040;-66
2022/08/22 02:20:58;;;;;;;42.22;22.67;;;;;;;24.13;31.17;100036.78;5070341;28;20470;-66
2022/08/22 02:23:42;;;;;;;45.80;24.10;;;;;;;24.03;31.90;100030.28;5071040;28;20040;-66
2022/08/22 02:26:36;;;;;;;53.63;25.73;;;;;;;23.80;32.19;100028.31;5071150;28;20051;-66
2022/08/22 02:29:08;;;;;;;48.28;27.10;;;;;;;23.83;32.77;100027.88;5070110;28;20048;-66
2022/08/22 02:31:45;;;;;;;53.35;30.15;;;;;;;23.97;32.34;100023.09;5071208;28;20044;-66
2022/08/22 02:34:25;;;;;;;64.07;32.80;;;;;;;24.12;31.94;100029.72;5069653;28;20041;-66
2022/08/22 02:37:21;;;;;;;70.40;35.33;;;;;;;24.22;32.00;100031.81;5069888;28;20362;-66
2022/08/22 02:40:03;;;;;;;63.05;33.78;;;;;;;23.98;31.79;100019.31;5070685;28;20040;-66
2022/08/22 02:42:54;;;;;;;73.78;37.20;;;;;;;24.27;31.61;100037.34;5070774;28;20406;-66
2022/08/22 02:45:39;;;;;;;72.30;38.55;;;;;;;24.31;31.59;100033.94;5069313;28;20110;-66
2022/08/22 02:48:18;;;;;;;75.50;38.38;;;;;;;24.13;31.70;100036.78;5052914;28;20135;-65
2022/08/22 02:50:52;;;;;;;74.38;37.70;;;;;;;24.26;31.46;100036.53;5069311;28;20044;-66
2022/08/22 02:53:51;;;;;;;73.20;38.45;;;;;;;24.35;31.51;100039.72;5069352;28;20044;-64
2022/08/22 02:56:30;;;;;;;74.50;40.10;;;;;;;24.18;31.33;100036.06;5066374;28;20159;-64
2022/08/22 02:59:17;;;;;;;79.13;39.75;;;;;;;24.20;31.84;100032.03;5069391;28;20040;-65
2022/08/22 03:01:45;;;;;;;78.70;41.28;;;;;;;24.04;31.84;100023.78;5066738;28;20055;-65
2022/08/22 03:04:44;;;;;;;78.88;40.50;;;;;;;24.24;31.59;100041.38;5070487;28;20052;-65
2022/08/22 03:07:19;;;;;;;92.85;40.20;;;;;;;24.13;31.35;100044.09;5070600;28;20102;-65
2022/08/22 03:09:50;;;;;;;83.30;41.78;;;;;;;24.12;31.40;100040.56;5069871;28;20056;-64
2022/08/22 03:12:32;;;;;;;86.57;41.25;;;;;;;24.12;31.57;100043.28;5068381;28;20059;-66
2022/08/22 03:15:16;;;;;;;88.13;40.28;;;;;;;24.32;31.25;100045.63;5068765;28;20037;-65
2022/08/22 03:17:58;;;;;;;76.40;40.78;;;;;;;24.36;30.82;100049.50;5067734;28;20139;-66
2022/08/22 03:20:42;;;;;;;82.35;40.67;;;;;;;24.45;30.91;100056.22;5070166;28;20040;-65
2022/08/22 03:23:33;;;;;;;81.55;40.28;;;;;;;24.31;31.07;100054.84;5070043;28;20040;-65
2022/08/22 03:26:11;;;;;;;83.72;41.38;;;;;;;24.26;31.29;100050.09;5069867;28;20048;-65
2022/08/22 03:28:44;;;;;;;78.30;41.40;;;;;;;24.42;30.91;100040.41;5068822;28;20090;-66
2022/08/22 03:31:16;;;;;;;76.22;41.22;;;;;;;24.62;30.81;100059.88;5051976;28;20077;-65
2022/08/22 03:33:45;;;;;;;87.18;42.95;;;;;;;24.60;30.92;100051.97;5069845;28;20051;-65
2022/08/22 03:36:24;;;;;;;81.50;42.97;;;;;;;24.52;30.86;100038.78;5068358;28;20079;-65
2022/08/22 03:39:02;;;;;;;90.40;42.03;;;;;;;24.64;30.62;100055.88;5069987;28;20043;-66
2022/08/22 03:41:49;;;;;;;80.47;40.17;;;;;;;24.60;30.64;100057.41;5069826;28;20052;-65
2022/08/22 03:44:29;;;;;;;74.95;40.55;;;;;;;24.62;30.77;100063.44;5068631;28;20044;-66
2022/08/22 03:47:13;;;;;;;85.32;40.33;;;;;;;24.71;30.80;100062.03;5051708;28;20051;-65
2022/08/22 03:49:57;;;;;;;83.47;39.85;;;;;;;24.52;30.64;100063.22;5069870;28;20036;-65
2022/08/22 03:53:07;;;;;;;82.32;41.00;;;;;;;24.69;30.31;100063.34;5069381;28;20048;-65
2022/08/22 03:55:39;;;;;;;74.07;38.20;;;;;;;24.80;30.25;100059.78;5041218;28;20494;-65
2022/08/22 03:58:50;;;;;;;74.38;38.25;;;;;;;24.83;30.21;100070.16;5069920;28;20044;-65
2022/08/22 04:01:28;;;;;;;84.88;41.35;;;;;;;24.81;30.36;100067.69;5059194;28;20052;-65
2022/08/22 04:04:12;;;;;;;87.15;40.33;;;;;;;25.00;30.16;100072.94;5069430;28;20059;-66
2022/08/22 04:07:07;;;;;;;84.07;40.58;;;;;;;25.06;30.33;100074.69;5051670;28;20155;-66
2022/08/22 04:09:40;;;;;;;82.07;41.60;;;;;;;24.96;30.08;100069.88;5069289;28;20418;-66
2022/08/22 04:12:38;;;;;;;78.07;38.80;;;;;;;25.32;29.86;100066.81;5068270;28;20044;-65
2022/08/22 04:15:24;;;;;;;76.72;40.22;;;;;;;25.46;29.55;100072.81;5068197;28;20131;-66
2022/08/22 04:18:18;;;;;;;70.32;38.58;;;;;;;25.67;29.35;100072.94;5051292;28;20555;-66
2022/08/22 04:21:09;;;;;;;74.75;38.83;;;;;;;25.79;29.28;100072.84;5068382;28;20048;-64
2022/08/22 04:23:49;;;;;;;76.10;39.35;;;;;;;25.72;29.22;100069.47;5069258;28;20041;-65
2022/08/22 04:26:34;;;;;;;;;;;;;;;26.13;28.85;100074.53;5069753;28;20085;-65
2022/08/22 04:29:13;;;;;;;72.15;36.10;;;;;;;26.09;28.72;100076.94;5071636;28;19947;-65
2022/08/22 04:32:07;;;;;;;72.32;37.70;;;;;;;26.30;28.51;100078.91;5071855;28;20126;-65
2022/08/22 04:34:39;;;;;;;79.15;36.78;;;;;;;26.28;28.82;100082.94;5063245;28;20044;-65
2022/08/22 04:37:22;;;;;;;75.97;37.72;;;;;;;26.16;28.83;100085.78;5071440;28;20070;-65
2022/08/22 04:39:56;;;;;;;74.47;35.70;;;;;;;26.15;28.49;100056.06;5071719;28;20044;-64
2022/08/22 04:42:28;;;;;;;75.93;34.65;;;;;;;26.42;28.57;100070.63;5071407;28;20511;-64
2022/08/22 04:44:56;;;;;;;73.78;35.72;;;;;;;26.46;28.23;100080.78;5072404;28;20075;-65
2022/08/22 04:47:43;;;;;;;68.82;35.13;;;;;;;26.76;27.61;100090.50;5072945;28;20083;-65
2022/08/22 04:50:27;;;;;;;69.95;33.92;;;;;;;26.78;27.62;100093.78;5072899;28;20036;-65
2022/08/22 04:53:11;;;;;;;65.40;34.60;;;;;;;26.68;27.94;100088.22;5073526;28;20040;-65
2022/08/22 04:55:56;;;;;;;58.83;34.95;;;;;;;26.35;28.50;100070.00;5072552;28;20052;-64
2022/08/22 04:58:54;;;;;;;60.55;33.97;;;;;;;26.44;28.42;100060.31;5088899;28;20086;-65
2022/08/22 05:01:37;;;;;;;59.42;33.10;;;;;;;26.32;28.65;100074.03;5073678;28;20082;-66
2022/08/22 05:04:08;;;;;;;65.38;35.08;;;;;;;26.62;28.24;100081.81;5091139;28;20051;-66
2022/08/22 05:06:39;;;;;;;60.30;33.90;;;;;;;26.60;28.25;100062.16;5090187;28;20398;-66
2022/08/22 05:09:12;;;;;;;65.75;34.63;;;;;;;26.73;28.15;100067.28;5091460;28;20036;-67
2022/08/22 05:11:40;;;;;;;58.42;33.72;;;;;;;26.81;28.16;100061.41;5089515;28;20059;-66
2022/08/22 05:14:36;;;;;;;62.75;34.75;;;;;;;27.03;28.06;100067.66;5089794;28;20572;-65
2022/08/22 05:17:04;;;;;;;54.33;33.72;;;;;;;27.25;27.82;100062.19;5090841;28;20047;-65
2022/08/22 05:19:33;;;;;;;61.47;33.50;;;;;;;27.15;27.93;100054.75;5090327;28;20048;-65
2022/08/22 05:21:59;;;;;;;60.58;33.65;;;;;;;27.18;27.91;100059.69;5090020;28;20046;-65
2022/08/22 05:24:29;;;;;;;55.13;30.55;;;;;;;27.15;27.70;100070.28;5072928;28;20516;-66
2022/08/22 05:26:56;;;;;;;51.13;30.40;;;;;;;27.12;27.54;100054.44;5072793;28;20051;-65
2022/08/22 05:29:26;;;;;;;58.90;31.27;;;;;;;27.35;27.56;100059.63;5089875;28;20040;-66
2022/08/22 05:32:03;;;;;;;58.53;33.08;;;;;;;27.42;27.41;100049.31;5089843;28;20052;-66
2022/08/22 05:34:40;;;;;;;62.35;31.85;;;;;;;27.51;27.26;100061.41;5090393;28;20050;-68
2022/08/22 05:37:32;;;;;;;54.00;32.45;;;;;;;27.70;27.08;100055.34;5089980;28;20050;-67
2022/08/22 05:39:59;;;;;;;62.40;32.53;;;;;;;27.88;27.08;100062.34;5088312;28;20074;-66
2022/08/22 05:42:36;;;;;;;61.92;35.10;;;;;;;28.20;26.57;100057.69;5089899;28;20044;-65
2022/08/22 05:45:05;;;;;;;60.05;34.35;;;;;;;28.27;26.48;100063.75;5072654;28;20048;-65
2022/08/22 05:47:34;;;;;;;58.75;33.40;;;;;;;28.21;26.80;100066.72;5089410;28;20047;-64
2022/08/22 05:50:02;;;;;;;62.95;34.42;;;;;;;28.64;26.04;100067.31;5090611;28;20036;-64
2022/08/22 05:52:55;;;;;;;53.15;33.40;;;;;;;29.18;25.49;100070.59;5090845;28;20509;-67
2022/08/22 05:55:29;;;;;;;55.75;32.72;;;;;;;29.87;24.42;100073.75;5088337;28;20077;-67
2022/08/22 05:58:32;;;;;;;57.38;32.08;;;;;;;30.45;23.66;100078.69;5089365;28;20047;-64
2022/08/22 06:01:17;;;;;;;58.28;33.22;;;;;;;30.80;23.09;100081.34;5081764;28;20052;-65
2022/08/22 06:04:18;;;;;;;49.05;31.45;;;;;;;30.93;22.94;100086.25;5089575;28;20086;-65
2022/08/22 06:07:13;;;;;;;52.90;32.03;;;;;;;30.75;23.28;100087.69;5082150;28;20057;-66
2022/08/22 06:09:45;;;;;;;59.90;31.25;;;;;;;30.19;23.40;100091.56;5089118;28;20056;-65
2022/08/22 06:12:21;;;;;;;50.65;30.95;;;;;;;29.73;23.93;100068.00;5088372;28;20047;-65
2022/08/22 06:14:47;;;;;;;55.83;31.67;;;;;;;29.80;24.12;100092.38;5090973;28;20440;-65
2022/08/22 06:17:26;;;;;;;55.53;31.77;;;;;;;30.18;23.75;100091.84;5089529;28;20461;-67
2022/08/22 06:19:53;;;;;;;50.22;30.63;;;;;;;29.78;24.30;100097.31;5088305;28;20062;-66
2022/08/22 06:22:32;;;;;;;58.38;32.75;;;;;;;29.65;24.16;100100.56;5072080;28;20142;-65
2022/08/22 06:25:11;;;;;;;58.63;32.17;;;;;;;29.91;24.64;100097.59;5071592;28;20479;-66
2022/08/22 06:27:37;;;;;;;58.22;33.28;;;;;;;29.43;25.08;100090.63;5089046;28;20150;-65
2022/08/22 06:30:04;;;;;;;49.10;32.15;;;;;;;29.45;24.80;100093.09;5088355;28;20512;-65
2022/08/22 06:32:37;;;;;;;56.33;32.33;;;;;;;29.51;24.85;100092.00;5088772;28;20555;-66
2022/08/22 06:35:06;;;;;;;56.38;32.08;;;;;;;29.48;25.07;100087.06;5071458;28;20044;-66
2022/08/22 06:37:38;;;;;;;63.92;33.80;;;;;;;29.74;24.96;100094.28;5088885;28;20044;-66
2022/08/22 06:40:06;;;;;;;61.33;32.35;;;;;;;29.88;24.54;100109.09;5088474;28;20101;-66
2022/08/22 06:42:37;;;;;;;57.97;32.92;;;;;;;30.28;24.50;100098.16;5055270;28;20048;-65
2022/08/22 06:45:05;;;;;;;67.93;33.50;;;;;;;30.14;24.10;100088.81;5070574;28;20054;-65
2022/08/22 06:47:35;;;;;;;58.95;32.17;;;;;;;30.04;24.16;100101.69;5069425;28;20059;-65
2022/08/22 06:50:05;;;;;;;;;;;;;;;30.19;24.32;100093.47;5085852;28;20036;-66
2022/08/22 06:52:33;;;;;;;57.60;33.05;;;;;;;30.44;24.20;100098.97;5086278;28;19920;-65
2022/08/22 06:55:04;;;;;;;63.00;33.30;;;;;;;30.99;23.77;100107.09;5086089;28;20040;-65
2022/08/22 06:57:43;;;;;;;;;;;;;;;31.65;22.60;100107.59;5087447;28;20075;-65
2022/08/22 07:00:14;;;;;;;63.15;33.13;;;;;;;31.05;23.28;100115.03;5086669;28;19919;-65
2022/08/22 07:02:41;;;;;;;55.28;32.13;;;;;;;30.44;24.35;100104.47;5089252;28;20460;-65
2022/08/22 07:05:19;;;;;;;62.63;32.63;;;;;;;30.52;24.26;100112.13;5088005;28;20058;-64
2022/08/22 07:07:44;;;;;;;60.10;32.35;;;;;;;30.81;24.07;100107.72;5089618;28;20056;-68
2022/08/22 07:10:12;;;;;;;56.42;32.67;;;;;;;31.26;23.27;100101.22;5087782;28;20044;-65
2022/08/22 07:12:44;;;;;;;54.05;32.33;;;;;;;31.31;23.23;100107.53;5087135;28;20043;-65
2022/08/22 07:15:34;;;;;;;54.03;31.63;;;;;;;31.15;23.39;100100.44;5087895;28;20043;-65
2022/08/22 07:18:22;;;;;;;48.85;30.02;;;;;;;31.25;23.32;100105.88;5089290;28;20189;-65
2022/08/22 07:20:58;;;;;;;53.10;31.38;;;;;;;31.64;22.85;100101.31;5087705;28;20105;-65
2022/08/22 07:23:30;;;;;;;57.00;30.58;;;;;;;32.42;22.18;100102.94;5071226;28;20128;-65
2022/08/22 07:26:17;;;;;;;56.70;31.73;;;;;;;33.34;21.08;100101.63;5088800;28;20469;-65
2022/08/22 07:28:50;;;;;;;49.63;31.55;;;;;;;34.04;20.27;100103.38;5088041;28;20108;-66
2022/08/22 07:31:43;;;;;;;54.83;30.08;;;;;;;34.99;19.22;100114.66;5087989;28;20086;-66
2022/08/22 07:34:12;;;;;;;55.08;30.50;;;;;;;35.46;18.78;100116.16;5054254;28;20101;-65
2022/08/22 07:36:48;;;;;;;50.38;29.42;;;;;;;35.57;18.04;100110.13;5089308;28;20059;-65
2022/08/22 07:39:24;;;;;;;51.70;29.80;;;;;;;35.62;18.45;100106.44;5087796;28;20079;-66
2022/08/22 07:41:59;;;;;;;49.72;29.83;;;;;;;36.85;17.33;100105.56;5087780;28;20153;-65
2022/08/22 07:44:31;;;;;;;51.63;31.63;;;;;;;38.46;15.43;100109.66;5089012;28;20047;-65
2022/08/22 07:47:05;;;;;;;50.35;31.90;;;;;;;39.25;14.53;100112.66;5087925;28;20040;-66
2022/08/22 07:49:55;;;;;;;52.38;32.35;;;;;;;39.47;14.14;100106.00;5071097;28;20105;-66
2022/08/22 07:52:22;;;;;;;51.25;30.63;;;;;;;39.90;13.99;100092.59;5087949;28;20044;-66
2022/08/22 07:55:15;;;;;;;51.35;30.23;;;;;;;39.80;14.01;100092.97;5089270;28;20036;-65
2022/08/22 07:57:43;;;;;;;44.58;28.58;;;;;;;40.51;13.54;100100.03;5071297;28;20052;-66
2022/08/22 08:00:18;;;;;;;46.20;27.67;;;;;;;41.36;12.73;100100.91;5084458;28;20418;-66
2022/08/22 08:02:50;;;;;;;53.50;28.15;;;;;;;41.93;12.06;100103.50;5069909;28;20157;-66
2022/08/22 08:05:18;;;;;;;53.65;28.95;;;;;;;40.97;12.94;100082.91;5071002;28;20049;-66
2022/08/22 08:07:47;;;;;;;46.88;27.42;;;;;;;41.34;12.80;100092.91;5071652;28;20060;-65
2022/08/22 08:10:21;;;;;;;49.97;28.15;;;;;;;42.49;11.98;100103.13;5054675;28;20049;-66
2022/08/22 08:12:50;;;;;;;47.70;28.27;;;;;;;43.50;11.30;100075.31;5037303;28;20047;-66
2022/08/22 08:15:18;;;;;;;48.92;28.75;;;;;;;44.67;10.09;100108.16;5071425;28;20053;-67
2022/08/22 08:17:45;;;;;;;49.80;29.23;;;;;;;45.44;9.77;100103.84;5055121;28;20047;-66
2022/08/22 08:20:14;;;;;;;49.13;27.60;;;;;;;45.64;9.61;100102.50;5037682;28;20048;-66
2022/08/22 08:22:42;;;;;;;50.55;27.38;;;;;;;46.16;9.08;100101.63;5070913;28;20052;-66
2022/08/22 08:25:13;;;;;;;57.37;29.37;;;;;;;45.83;8.85;100107.19;5070859;28;20051;-66
2022/08/22 08:30:46;;;;;;;43.42;27.13;;;;;;;43.78;10.34;100075.94;5111302;28;20844;-65
2022/08/22 08:33:16;;;;;;;42.90;26.30;;;;;;;46.11;9.08;100096.31;5111925;28;20074;-66
2022/08/22 08:35:46;;;;;;;39.42;26.08;;;;;;;48.32;8.08;100091.53;5094443;28;20462;-66
2022/08/22 08:38:15;;;;;;;45.20;26.58;;;;;;;49.87;7.42;100093.06;5077546;28;20455;-66
2022/08/22 08:40:58;;;;;;;46.25;30.67;;;;;;;50.39;6.43;100099.69;5111009;28;20035;-66
2022/08/22 08:43:27;;;;;;;55.28;30.00;;;;;;;49.89;6.93;100092.66;5111069;28;20093;-66
2022/08/22 08:46:13;;;;;;;49.90;30.77;;;;;;;49.93;7.00;100091.41;5110864;28;20044;-67
2022/08/22 08:48:51;;;;;;;61.30;30.02;;;;;;;49.56;6.87;100105.28;5112330;28;20040;-66
2022/08/22 08:51:44;;;;;;;47.70;27.67;;;;;;;48.35;7.25;100110.50;5080564;28;20123;-67
2022/08/22 08:54:50;;;;;;;52.92;30.67;;;;;;;47.30;7.75;100091.06;5056662;28;20060;-67
2022/08/22 08:57:38;;;;;;;50.95;31.45;;;;;;;48.40;7.68;100101.63;5073425;28;20621;-68
2022/08/22 09:00:16;;;;;;;49.42;30.50;;;;;;;48.11;7.43;100102.75;5091368;28;20055;-66
2022/08/22 09:03:12;;;;;;;44.53;28.08;;;;;;;47.41;8.19;100103.19;5091593;28;20043;-66
2022/08/22 09:05:53;;;;;;;54.38;29.17;;;;;;;45.83;9.03;100091.16;5090062;28;20047;-67
2022/08/22 09:08:33;;;;;;;48.70;29.35;;;;;;;45.85;8.94;100100.03;5091204;28;20046;-66
2022/08/22 09:11:36;;;;;;;51.45;29.08;;;;;;;47.36;8.28;100090.28;5089748;28;20609;-66
2022/08/22 09:14:33;;;;;;;45.67;29.45;;;;;;;48.56;7.43;100087.97;5090498;28;20036;-66
2022/08/22 09:17:07;;;;;;;50.53;26.25;;;;;;;49.89;7.10;100107.59;5091289;28;20615;-67
2022/08/22 09:19:59;;;;;;;50.20;27.23;;;;;;;47.31;7.83;100099.13;5091358;28;20536;-66
2022/08/22 09:22:52;;;;;;;50.97;28.85;;;;;;;44.66;9.98;100103.72;5099293;28;20506;-66
2022/08/22 09:25:22;;;;;;;46.58;25.98;;;;;;;42.83;11.33;100096.88;5090433;28;20413;-65
2022/08/22 09:27:58;;;;;;;51.08;28.85;;;;;;;43.59;11.17;100096.31;5091197;28;20529;-66
2022/08/22 09:30:30;;;;;;;44.58;21.88;;;;;;;45.00;9.65;100096.28;5089936;28;20055;-66
2022/08/22 09:33:08;;;;;;;37.83;21.85;;;;;;;46.59;8.74;100098.09;5089724;28;20047;-66
2022/08/22 09:35:49;;;;;;;30.38;18.48;;;;;;;48.96;7.84;100090.41;5072944;28;20075;-66
2022/08/22 09:38:25;;;;;;;37.65;19.27;;;;;;;49.91;7.07;100112.81;5091121;28;20058;-66
2022/08/22 09:41:13;;;;;;;46.45;20.45;;;;;;;47.41;7.84;100089.91;5085437;28;20041;-66
2022/08/22 09:43:54;;;;;;;39.67;19.95;;;;;;;45.83;9.18;100085.56;5059127;28;20056;-66
2022/08/22 09:46:22;;;;;;;31.08;12.40;;;;;;;45.07;9.38;100086.03;5052597;28;20044;-67
2022/08/22 09:48:55;;;;;;;25.67;15.65;;;;;;;44.61;9.93;100085.19;5069784;28;20140;-66
2022/08/22 09:51:33;;;;;;;34.88;16.05;;;;;;;46.52;8.83;100083.94;5069212;28;20409;-66
2022/08/22 09:54:21;;;;;;;33.40;14.15;;;;;;;49.79;7.47;100094.31;5053048;28;20051;-66
2022/08/22 09:57:08;;;;;;;33.17;12.00;;;;;;;51.20;5.96;100085.69;5069576;28;20472;-66
2022/08/22 10:00:16;;;;;;;26.63;13.07;;;;;;;52.86;5.28;100087.94;5069562;28;20059;-66
2022/08/22 10:03:08;;;;;;;26.13;11.47;;;;;;;53.13;4.75;100083.00;5069296;28;20079;-67
2022/08/22 10:05:43;;;;;;;30.73;11.10;;;;;;;50.91;6.16;100075.03;5069037;28;20044;-67
2022/08/22 10:08:34;;;;;;;23.45;8.93;;;;;;;49.66;6.59;100081.84;5069986;28;20055;-67
2022/08/22 10:11:19;;;;;;;32.85;8.65;;;;;;;47.62;7.59;100069.53;5070394;28;20505;-67
2022/08/22 10:14:07;;;;;;;23.05;8.63;;;;;;;48.13;7.49;100072.97;5069702;28;20506;-67
2022/08/22 10:17:00;;;;;;;21.40;8.77;;;;;;;50.49;6.45;100060.03;5052025;28;20044;-67
2022/08/22 10:19:38;;;;;;;19.35;7.95;;;;;;;53.05;5.20;100075.06;5070057;28;20044;-66
2022/08/22 10:22:25;;;;;;;22.15;6.90;;;;;;;53.73;4.58;100079.03;5069435;28;20124;-67
2022/08/22 10:25:16;;;;;;;13.55;6.28;;;;;;;54.79;4.00;100080.22;5069604;28;20048;-67
2022/08/22 10:27:55;;;;;;;19.02;5.90;;;;;;;53.23;4.73;100076.31;5051881;28;20036;-68
2022/08/22 10:30:32;;;;;;;16.98;6.43;;;;;;;53.47;4.99;100073.44;5070042;28;20044;-67
2022/08/22 10:33:17;;;;;;;11.73;4.00;;;;;;;52.77;4.36;100070.66;5068751;28;20050;-68
2022/08/22 10:35:51;;;;;;;17.80;4.10;;;;;;;53.41;4.31;100061.78;5068552;28;20521;-66
2022/08/22 10:38:39;;;;;;;13.15;4.07;;;;;;;54.51;3.80;100046.75;5068184;28;20151;-67
2022/08/22 10:41:30;;;;;;;13.57;4.63;;;;;;;56.02;3.35;100065.34;5068109;28;20119;-66
2022/08/22 10:44:12;;;;;;;10.20;4.30;;;;;;;55.77;2.91;100074.69;5069301;28;20464;-67
2022/08/22 10:46:46;;;;;;;15.38;3.42;;;;;;;51.95;5.04;100058.91;5069675;28;20048;-66
2022/08/22 10:49:27;;;;;;;15.20;3.28;;;;;;;50.09;5.87;100052.19;5068539;28;20147;-66
2022/08/22 10:51:59;;;;;;;17.10;3.00;;;;;;;50.53;5.34;100052.28;5083658;28;20058;-66
2022/08/22 10:54:47;;;;;;;15.75;3.33;;;;;;;49.28;6.47;100048.03;5054627;28;20066;-66
2022/08/22 10:57:17;;;;;;;11.03;3.70;;;;;;;50.27;5.56;100038.72;5073062;28;20044;-66
2022/08/22 10:59:54;;;;;;;17.30;4.25;;;;;;;52.37;4.84;100039.69;5072001;28;20040;-65
2022/08/22 11:02:37;;;;;;;11.93;2.60;;;;;;;51.42;4.55;100049.47;5088349;28;20069;-67
2022/08/22 11:05:06;;;;;;;14.80;2.70;;;;;;;49.01;6.00;100050.50;5089204;28;20148;-66
2022/08/22 11:08:05;;;;;;;8.30;2.50;;;;;;;49.37;5.99;100051.25;5089178;28;20064;-67
2022/08/22 11:10:41;;;;;;;16.38;2.97;;;;;;;48.57;6.08;100058.56;5072054;28;20537;-66
2022/08/22 11:13:15;;;;;;;9.32;2.83;;;;;;;48.59;6.40;100033.59;5088695;28;20047;-66
2022/08/22 11:16:16;;;;;;;14.93;2.60;;;;;;;49.51;6.08;100032.28;5086955;28;20466;-66
2022/08/22 11:19:13;;;;;;;9.40;2.40;;;;;;;50.70;5.42;100049.78;5085642;28;20048;-66
2022/08/22 11:22:20;;;;;;;11.52;2.95;;;;;;;50.27;5.59;100038.72;5089234;28;20113;-66
2022/08/22 11:25:05;;;;;;;11.93;2.40;;;;;;;49.39;5.97;100055.31;5086344;28;20054;-66
2022/08/22 11:27:37;;;;;;;12.70;2.70;;;;;;;48.31;6.65;100044.84;5088305;28;20043;-66
2022/08/22 11:30:02;;;;;;;10.95;2.22;;;;;;;45.85;7.70;100038.25;5071129;28;20047;-66
2022/08/22 11:32:31;;;;;;;10.48;2.65;;;;;;;44.72;8.70;100044.19;5089708;28;20090;-65
2022/08/22 11:35:21;;;;;;;13.85;2.50;;;;;;;43.76;9.09;100019.50;5088938;28;20048;-66
2022/08/22 11:38:12;;;;;;;12.75;2.25;;;;;;;43.54;9.68;100018.25;5088790;28;20562;-66
2022/08/22 11:40:51;;;;;;;14.00;2.72;;;;;;;42.99;9.97;100018.56;5093418;28;20048;-65
2022/08/22 11:43:35;;;;;;;12.63;2.90;;;;;;;41.71;11.02;100026.69;5093194;28;20576;-66
2022/08/22 11:46:18;;;;;;;13.00;3.25;;;;;;;39.64;12.17;100020.47;5091681;28;20557;-65
2022/08/22 11:49:13;;;;;;;25.45;4.05;;;;;;;38.69;13.13;100022.22;5092386;28;20076;-65
2022/08/22 11:51:38;;;;;;;22.73;4.40;;;;;;;38.36;13.29;100025.94;5093461;28;20043;-65
2022/08/22 11:54:15;;;;;;;9.60;3.70;;;;;;;38.23;13.57;100022.22;5091600;28;20040;-65
2022/08/22 11:56:53;;;;;;;17.45;4.68;;;;;;;38.26;13.86;100007.66;5100100;28;20032;-65
2022/08/22 11:59:29;;;;;;;13.18;4.10;;;;;;;39.10;13.41;100006.81;5095467;28;20051;-65
2022/08/22 12:02:01;;;;;;;15.68;4.72;;;;;;;39.29;13.29;100026.63;5095134;28;20424;-65
2022/08/22 12:04:31;;;;;;;9.82;3.90;;;;;;;38.61;13.68;100016.72;5111789;28;20138;-65
2022/08/22 12:06:58;;;;;;;;;;;;;;;38.30;14.46;100016.97;5095695;28;20055;-65
2022/08/22 12:09:23;;;;;;;17.13;5.18;;;;;;;37.92;14.62;100016.06;5095457;28;19966;-65
2022/08/22 12:12:17;;;;;;;14.48;5.13;;;;;;;38.33;14.79;100012.72;5112632;28;20081;-66
2022/08/22 12:14:51;;;;;;;19.52;5.30;;;;;;;38.19;14.75;100026.81;5113406;28;20035;-65
2022/08/22 12:17:47;;;;;;;13.30;4.85;;;;;;;37.80;14.98;100004.00;5112191;28;20143;-66